createdAt,value
2023-04-28T00:04:39.853Z,56.68
2023-04-28T00:09:42.696Z,57.49
2023-04-28T00:14:45.463Z,57.52
2023-04-28T00:19:49.904Z,57.77
2023-04-28T00:24:52.763Z,58.63
2023-04-28T00:29:55.803Z,58.61
2023-04-28T00:35:00.200Z,59.00
2023-04-28T00:40:03.220Z,59.30
2023-04-28T00:45:07.657Z,60.52
2023-04-28T00:50:12.122Z,60.61
2023-04-28T00:55:16.900Z,60.78
2023-04-28T01:00:19.731Z,60.66
2023-04-28T01:05:26.499Z,61.46
2023-04-28T01:10:29.550Z,61.13
2023-04-28T01:15:36.543Z,60.96
2023-04-28T01:20:40.847Z,61.42
2023-04-28T01:25:45.932Z,60.34
2023-04-28T01:30:48.741Z,60.39
2023-04-28T01:35:51.595Z,60.60
2023-04-28T01:40:58.572Z,60.47
2023-04-28T01:46:01.635Z,60.17
2023-04-28T01:51:04.849Z,58.95
2023-04-28T01:56:09.284Z,59.24
2023-04-28T02:01:12.247Z,59.43
2023-04-28T02:06:15.709Z,59.76
2023-04-28T02:11:25.214Z,59.24
2023-04-28T02:16:37.768Z,59.04
2023-04-28T02:21:49.407Z,58.66
2023-04-28T02:26:53.730Z,58.38
2023-04-28T02:31:56.754Z,59.62
2023-04-28T02:36:59.542Z,58.98
2023-04-28T02:42:05.378Z,59.24
2023-04-28T02:47:08.389Z,59.73
2023-04-28T02:52:11.660Z,59.87
2023-04-28T02:57:15.983Z,60.47
2023-04-28T03:02:20.688Z,59.36
2023-04-28T03:07:24.068Z,61.05
2023-04-28T03:12:32.646Z,60.20
2023-04-28T03:17:36.617Z,60.16
2023-04-28T03:22:39.568Z,60.40
2023-04-28T03:27:46.485Z,59.36
2023-04-28T03:32:52.428Z,59.13
2023-04-28T03:37:55.476Z,58.51
2023-04-28T03:43:03.983Z,58.43
2023-04-28T03:48:12.601Z,58.37
2023-04-28T03:53:15.686Z,59.58
2023-04-28T04:03:39.811Z,58.88
2023-04-28T04:08:43.108Z,59.16
2023-04-28T04:13:47.290Z,58.90
2023-04-28T04:18:55.530Z,58.93
2023-04-28T04:24:10.936Z,58.33
2023-04-28T04:29:15.700Z,59.72
2023-04-28T04:34:18.844Z,58.96
2023-04-28T04:39:22.415Z,57.61
2023-04-28T04:44:26.797Z,56.70
2023-04-28T04:49:30.434Z,57.37
2023-04-28T04:54:33.314Z,57.49
2023-04-28T04:59:37.469Z,56.42
2023-04-28T05:04:45.186Z,55.73
2023-04-28T05:09:50.354Z,56.45
2023-04-28T05:14:54.645Z,55.82
2023-04-28T05:19:58.099Z,56.00
2023-04-28T05:25:01.189Z,54.76
2023-04-28T05:30:08.664Z,54.23
2023-04-28T05:35:15.168Z,53.54
2023-04-28T05:40:18.266Z,52.86
2023-04-28T05:45:22.698Z,52.03
2023-04-28T05:50:26.504Z,51.07
2023-04-28T06:08:09.153Z,45.08
2023-04-28T06:13:14.578Z,44.47
2023-04-28T06:18:19.577Z,44.10
2023-04-28T06:23:22.960Z,42.64
2023-04-28T06:28:27.014Z,39.86
2023-04-28T06:33:31.360Z,37.12
2023-04-28T06:38:40.202Z,34.64
2023-04-28T06:43:52.592Z,33.56
2023-04-28T06:49:10.867Z,32.70
2023-04-28T06:54:20.960Z,34.06
2023-04-28T06:59:38.611Z,32.72
2023-04-28T07:04:46.122Z,32.15
2023-04-28T07:09:53.601Z,31.31
2023-04-28T07:15:02.270Z,30.99
2023-04-28T07:20:07.943Z,29.22
2023-04-28T07:25:11.326Z,27.47
2023-04-28T07:30:26.442Z,25.38
2023-04-28T07:35:32.191Z,24.97
2023-04-28T07:40:35.017Z,25.12
2023-04-28T07:45:39.949Z,27.03
2023-04-28T07:50:44.155Z,26.49
2023-04-28T07:55:46.988Z,26.47
2023-04-28T08:00:49.775Z,27.95
2023-04-28T08:05:54.066Z,30.44
2023-04-28T08:10:57.249Z,31.02
2023-04-28T08:16:01.094Z,31.77
2023-04-28T08:21:05.607Z,33.86
2023-04-28T08:26:10.207Z,34.90
2023-04-28T08:31:13.090Z,33.72
2023-04-28T08:36:18.050Z,34.27
2023-04-28T08:41:21.816Z,33.97
2023-04-28T08:46:28.484Z,33.80
2023-04-28T08:51:37.056Z,35.66
2023-04-28T08:56:40.402Z,36.04
2023-04-28T09:01:48.790Z,36.51
2023-04-28T09:06:53.212Z,35.60
2023-04-28T09:11:58.266Z,34.88
2023-04-28T09:17:02.085Z,35.48
2023-04-28T09:22:24.684Z,34.54
2023-04-28T09:27:30.765Z,35.98
2023-04-28T09:32:36.380Z,35.46
2023-04-28T09:37:43.541Z,34.27
2023-04-28T09:42:47.830Z,33.69
2023-04-28T09:47:50.709Z,34.00
2023-04-28T09:52:59.284Z,33.57
2023-04-28T09:58:10.939Z,34.26
2023-04-28T10:03:16.588Z,34.21
2023-04-28T10:08:21.705Z,35.00
2023-04-28T10:13:25.471Z,35.08
2023-04-28T10:18:29.756Z,34.90
2023-04-28T10:23:53.566Z,35.21
2023-04-28T10:28:56.693Z,36.10
2023-04-28T10:34:23.009Z,34.81
2023-04-28T10:39:27.134Z,34.57
2023-04-28T10:44:45.973Z,35.18
2023-04-28T10:50:11.455Z,34.27
2023-04-28T10:55:32.996Z,33.25
2023-04-28T11:00:56.403Z,33.77
2023-04-28T11:06:20.629Z,34.70
2023-04-28T11:11:26.820Z,33.99
2023-04-28T11:16:29.774Z,33.80
2023-04-28T11:21:36.745Z,34.34
2023-04-28T11:26:41.517Z,34.81
2023-04-28T11:31:51.267Z,34.23
2023-04-28T11:36:55.013Z,34.19
2023-04-28T11:42:00.743Z,33.54
2023-04-28T11:47:05.214Z,34.33
2023-04-28T11:52:09.833Z,34.72
2023-04-28T11:57:21.109Z,34.28
2023-04-28T12:02:32.008Z,34.98
2023-04-28T12:07:43.682Z,34.18
2023-04-28T12:12:52.458Z,34.19
2023-04-28T12:17:57.848Z,34.23
2023-04-28T12:23:02.842Z,34.11
2023-04-28T12:28:10.803Z,36.14
2023-04-28T12:33:24.515Z,35.42
2023-04-28T12:38:29.466Z,36.91
2023-04-28T12:43:35.498Z,37.11
2023-04-28T12:48:39.515Z,36.84
2023-04-28T12:53:42.369Z,37.54
2023-04-28T12:58:46.637Z,37.12
2023-04-28T13:03:51.884Z,36.78
2023-04-28T13:08:56.029Z,37.48
2023-04-28T13:14:04.144Z,37.92
2023-04-28T13:19:10.681Z,38.40
2023-04-28T13:24:39.014Z,37.68
2023-04-28T13:29:43.737Z,37.58
2023-04-28T13:34:58.833Z,37.99
2023-04-28T13:40:04.359Z,38.19
2023-04-28T13:45:09.413Z,38.66
2023-04-28T13:50:12.727Z,38.89
2023-04-28T13:55:21.177Z,38.15
2023-04-28T14:00:25.624Z,38.96
2023-04-28T14:05:49.720Z,38.41
2023-04-28T14:10:53.334Z,38.79
2023-04-28T14:16:07.662Z,40.01
2023-04-28T14:21:13.674Z,40.73
2023-04-28T14:26:23.937Z,40.20
2023-04-28T14:32:12.080Z,40.49
2023-04-28T14:37:17.718Z,40.51
2023-04-28T14:42:23.366Z,40.05
2023-04-28T14:47:28.926Z,41.87
2023-04-28T14:52:32.584Z,42.18
2023-04-28T14:57:38.043Z,41.93
2023-04-28T15:02:42.471Z,41.91
2023-04-28T15:07:45.554Z,42.23
2023-04-28T15:12:51.010Z,42.58
2023-04-28T15:18:00.597Z,42.20
2023-04-28T15:23:03.664Z,41.99
2023-04-28T15:28:11.852Z,42.28
2023-04-28T15:33:18.690Z,44.05
2023-04-28T15:38:22.977Z,45.32
2023-04-28T15:43:28.286Z,45.66
2023-04-28T15:48:43.062Z,46.05
2023-04-28T15:54:23.281Z,44.82
2023-04-28T16:05:39.161Z,43.81
2023-04-28T16:10:48.195Z,43.23
2023-04-28T16:34:37.203Z,44.68
2023-04-28T16:39:58.967Z,45.21
2023-04-28T16:45:01.842Z,46.76
2023-04-28T16:50:05.035Z,47.39
2023-04-28T16:55:10.469Z,48.27
2023-04-28T17:00:15.125Z,49.67
2023-04-28T17:05:18.054Z,49.36
2023-04-28T17:10:22.803Z,49.71
2023-04-28T17:15:27.156Z,51.25
2023-04-28T17:20:30.154Z,51.97
2023-04-28T17:26:44.471Z,53.46
2023-04-28T17:32:03.762Z,54.33
2023-04-28T17:44:21.309Z,54.53
2023-04-28T17:49:25.690Z,54.64
2023-04-28T17:54:31.765Z,55.16
2023-04-28T17:59:37.041Z,54.79
2023-04-28T18:04:56.859Z,56.29
2023-04-28T18:10:51.348Z,59.21
2023-04-28T18:23:36.554Z,63.40
2023-04-28T18:28:39.758Z,64.57
2023-04-28T18:33:45.947Z,65.52
2023-04-28T18:38:49.335Z,70.06
2023-04-28T18:43:53.768Z,72.85
2023-04-28T18:49:00.213Z,74.83
2023-04-28T18:54:08.314Z,75.36
2023-04-28T18:59:13.778Z,74.95
2023-04-28T19:04:18.891Z,75.39
2023-04-28T19:09:25.855Z,73.64
2023-04-28T19:14:31.644Z,73.57
2023-04-28T19:19:40.803Z,73.18
2023-04-28T19:24:48.631Z,73.40
2023-04-28T19:29:53.181Z,78.17
2023-04-28T19:34:56.683Z,85.73
2023-04-28T19:40:00.101Z,85.53
2023-04-28T19:45:07.364Z,86.14
2023-04-28T19:50:11.599Z,83.68
2023-04-28T19:55:18.286Z,85.58
2023-04-28T20:00:24.273Z,86.01
2023-04-28T20:05:27.167Z,86.34
2023-04-28T20:10:30.359Z,87.34
2023-04-28T20:15:34.767Z,88.21
2023-04-28T20:20:37.784Z,91.10
2023-04-28T20:25:41.360Z,93.45
2023-04-28T20:30:45.848Z,97.53
2023-04-28T20:35:48.936Z,95.21
2023-04-28T20:40:52.329Z,93.80
2023-04-28T20:45:57.764Z,94.10
2023-04-28T20:51:03.637Z,87.15
2023-04-28T20:56:06.748Z,89.52
2023-04-28T21:01:11.146Z,89.46
2023-04-28T21:06:13.980Z,88.10
2023-04-28T21:11:17.794Z,87.88
2023-04-28T21:16:22.467Z,88.41
2023-04-28T21:21:25.356Z,88.88
2023-04-28T21:26:28.214Z,89.38
2023-04-28T21:31:32.448Z,91.14
2023-04-28T21:36:35.340Z,92.21
2023-04-28T21:41:38.557Z,92.72
2023-04-28T21:46:42.800Z,92.22
2023-04-28T22:05:38.284Z,93.88
2023-04-28T22:10:41.269Z,93.46
2023-04-28T22:15:44.118Z,93.87
2023-04-28T22:20:50.073Z,91.40
2023-04-28T22:25:53.336Z,92.83
2023-04-28T22:30:56.114Z,93.24
2023-04-28T22:36:00.377Z,92.26
2023-04-28T22:41:03.302Z,92.84
2023-04-28T22:46:06.183Z,91.45
2023-04-28T22:51:10.387Z,91.93
2023-04-28T22:56:13.251Z,92.32
2023-04-28T23:01:16.265Z,92.63
2023-04-28T23:06:20.543Z,89.43
2023-04-28T23:11:24.140Z,89.34
2023-04-28T23:16:29.926Z,89.87
2023-04-28T23:21:34.156Z,89.83
2023-04-28T23:26:37.886Z,90.52
2023-04-28T23:31:40.783Z,92.11
2023-04-28T23:36:50.631Z,92.42
2023-04-28T23:41:57.005Z,90.85
2023-04-28T23:47:02.784Z,90.51
2023-04-28T23:52:07.671Z,91.52
2023-04-28T23:57:10.663Z,91.08
